sensor_id;sensor_type;location;lat;lon;timestamp;pressure;altitude;pressure_sealevel;temperature;humidity
76050;BME280;64967;50.234;19.224;2024-01-30T00:02:02;78251.75;;;-143.90;100.00
76050;BME280;64967;50.234;19.224;2024-01-30T00:04:28;78264.19;;;-143.90;100.00
76050;BME280;64967;50.234;19.224;2024-01-30T00:06:55;78268.31;;;-143.90;100.00
76050;BME280;64967;50.234;19.224;2024-01-30T00:09:22;78268.31;;;-143.90;100.00
76050;BME280;64967;50.234;19.224;2024-01-30T00:11:48;78260.03;;;-143.90;100.00
76050;BME280;64967;50.234;19.224;2024-01-30T00:14:15;78268.31;;;-143.90;100.00
76050;BME280;64967;50.234;19.224;2024-01-30T00:16:41;78266.25;;;-143.90;100.00
76050;BME280;64967;50.234;19.224;2024-01-30T00:19:08;78270.38;;;-143.90;100.00
76050;BME280;64967;50.234;19.224;2024-01-30T00:21:35;78272.44;;;-143.90;100.00
76050;BME280;64967;50.234;19.224;2024-01-30T00:24:02;78270.38;;;-143.90;100.00
76050;BME280;64967;50.234;19.224;2024-01-30T00:26:28;78268.31;;;-143.90;100.00
76050;BME280;64967;50.234;19.224;2024-01-30T00:28:55;78270.38;;;-143.90;100.00
76050;BME280;64967;50.234;19.224;2024-01-30T00:31:22;78270.38;;;-143.90;100.00
76050;BME280;64967;50.234;19.224;2024-01-30T00:33:48;78270.38;;;-143.90;100.00
76050;BME280;64967;50.234;19.224;2024-01-30T00:36:15;78266.25;;;-143.90;100.00
76050;BME280;64967;50.234;19.224;2024-01-30T00:38:42;78266.25;;;-143.90;100.00
76050;BME280;64967;50.234;19.224;2024-01-30T00:41:09;78266.25;;;-143.90;100.00
76050;BME280;64967;50.234;19.224;2024-01-30T00:43:36;78268.31;;;-143.90;100.00
76050;BME280;64967;50.234;19.224;2024-01-30T00:46:03;78266.25;;;-143.90;100.00
76050;BME280;64967;50.234;19.224;2024-01-30T00:48:30;78274.53;;;-143.90;100.00
76050;BME280;64967;50.234;19.224;2024-01-30T00:50:56;78282.78;;;-143.90;100.00
76050;BME280;64967;50.234;19.224;2024-01-30T00:53:23;78282.78;;;-143.90;100.00
76050;BME280;64967;50.234;19.224;2024-01-30T00:55:50;78284.88;;;-143.90;100.00
76050;BME280;64967;50.234;19.224;2024-01-30T00:58:16;78295.22;;;-143.90;100.00
76050;BME280;64967;50.234;19.224;2024-01-30T01:00:45;78303.47;;;-143.90;100.00
76050;BME280;64967;50.234;19.224;2024-01-30T01:03:12;78295.22;;;-143.90;100.00
76050;BME280;64967;50.234;19.224;2024-01-30T01:05:40;78303.47;;;-143.90;100.00
76050;BME280;64967;50.234;19.224;2024-01-30T01:08:07;78311.75;;;-143.90;100.00
76050;BME280;64967;50.234;19.224;2024-01-30T01:10:33;78301.41;;;-143.90;100.00
76050;BME280;64967;50.234;19.224;2024-01-30T01:13:00;78295.22;;;-143.90;100.00
76050;BME280;64967;50.234;19.224;2024-01-30T01:15:27;78291.06;;;-143.90;100.00
76050;BME280;64967;50.234;19.224;2024-01-30T01:17:56;78282.78;;;-143.90;100.00
76050;BME280;64967;50.234;19.224;2024-01-30T01:20:22;78282.78;;;-143.90;100.00
76050;BME280;64967;50.234;19.224;2024-01-30T01:22:49;78301.41;;;-143.90;100.00
76050;BME280;64967;50.234;19.224;2024-01-30T01:25:16;78291.06;;;-143.90;100.00
76050;BME280;64967;50.234;19.224;2024-01-30T01:27:43;78291.06;;;-143.90;100.00
76050;BME280;64967;50.234;19.224;2024-01-30T01:30:11;78295.22;;;-143.90;100.00
76050;BME280;64967;50.234;19.224;2024-01-30T01:32:40;78293.13;;;-143.90;100.00
76050;BME280;64967;50.234;19.224;2024-01-30T01:35:11;78301.41;;;-143.90;100.00
76050;BME280;64967;50.234;19.224;2024-01-30T01:37:38;78297.28;;;-143.90;100.00
76050;BME280;64967;50.234;19.224;2024-01-30T01:40:05;78284.88;;;-143.90;100.00
76050;BME280;64967;50.234;19.224;2024-01-30T01:42:32;78282.78;;;-143.90;100.00
76050;BME280;64967;50.234;19.224;2024-01-30T01:44:59;78282.78;;;-143.90;100.00
76050;BME280;64967;50.234;19.224;2024-01-30T01:47:26;78282.78;;;-143.90;100.00
76050;BME280;64967;50.234;19.224;2024-01-30T01:49:52;78276.59;;;-143.90;100.00
76050;BME280;64967;50.234;19.224;2024-01-30T01:52:19;78274.53;;;-143.90;100.00
76050;BME280;64967;50.234;19.224;2024-01-30T01:54:46;78272.44;;;-143.90;100.00
76050;BME280;64967;50.234;19.224;2024-01-30T01:57:13;78278.66;;;-143.90;100.00
76050;BME280;64967;50.234;19.224;2024-01-30T01:59:41;78278.66;;;-143.90;100.00
76050;BME280;64967;50.234;19.224;2024-01-30T02:02:11;78274.53;;;-143.90;100.00
76050;BME280;64967;50.234;19.224;2024-01-30T02:04:39;78266.25;;;-143.90;100.00
76050;BME280;64967;50.234;19.224;2024-01-30T02:07:06;78262.09;;;-143.90;100.00
76050;BME280;64967;50.234;19.224;2024-01-30T02:09:33;78257.97;;;-143.90;100.00
76050;BME280;64967;50.234;19.224;2024-01-30T02:12:00;78253.81;;;-143.90;100.00
76050;BME280;64967;50.234;19.224;2024-01-30T02:14:26;78249.69;;;-143.90;100.00
76050;BME280;64967;50.234;19.224;2024-01-30T02:16:56;78253.81;;;-143.90;100.00
76050;BME280;64967;50.234;19.224;2024-01-30T02:19:23;78260.03;;;-143.90;100.00
76050;BME280;64967;50.234;19.224;2024-01-30T02:21:50;78262.09;;;-143.90;100.00
76050;BME280;64967;50.234;19.224;2024-01-30T02:24:17;78249.69;;;-143.90;100.00
76050;BME280;64967;50.234;19.224;2024-01-30T02:26:43;78241.41;;;-143.90;100.00
76050;BME280;64967;50.234;19.224;2024-01-30T02:29:10;78245.56;;;-143.90;100.00
76050;BME280;64967;50.234;19.224;2024-01-30T02:31:37;78249.69;;;-143.90;100.00
76050;BME280;64967;50.234;19.224;2024-01-30T02:34:04;78257.97;;;-143.90;100.00
76050;BME280;64967;50.234;19.224;2024-01-30T02:36:30;78278.66;;;-143.90;100.00
76050;BME280;64967;50.234;19.224;2024-01-30T02:38:57;78264.19;;;-143.90;100.00
76050;BME280;64967;50.234;19.224;2024-01-30T02:41:23;78268.31;;;-143.90;100.00
76050;BME280;64967;50.234;19.224;2024-01-30T02:43:50;78264.19;;;-143.90;100.00
76050;BME280;64967;50.234;19.224;2024-01-30T02:46:17;78262.09;;;-143.90;100.00
76050;BME280;64967;50.234;19.224;2024-01-30T02:48:43;78260.03;;;-143.90;100.00
76050;BME280;64967;50.234;19.224;2024-01-30T02:51:10;78262.09;;;-143.90;100.00
76050;BME280;64967;50.234;19.224;2024-01-30T02:53:37;78253.81;;;-143.90;100.00
76050;BME280;64967;50.234;19.224;2024-01-30T02:56:04;78255.91;;;-143.90;100.00
76050;BME280;64967;50.234;19.224;2024-01-30T02:58:32;78253.81;;;-143.90;100.00
76050;BME280;64967;50.234;19.224;2024-01-30T03:00:59;78253.81;;;-143.90;100.00
76050;BME280;64967;50.234;19.224;2024-01-30T03:03:26;78245.56;;;-143.90;100.00
76050;BME280;64967;50.234;19.224;2024-01-30T03:05:52;78245.56;;;-143.90;100.00
76050;BME280;64967;50.234;19.224;2024-01-30T03:08:19;78245.56;;;-143.90;100.00
76050;BME280;64967;50.234;19.224;2024-01-30T03:10:46;78243.47;;;-143.90;100.00
76050;BME280;64967;50.234;19.224;2024-01-30T03:13:13;78245.56;;;-143.90;100.00
76050;BME280;64967;50.234;19.224;2024-01-30T03:15:39;78245.56;;;-143.90;100.00
76050;BME280;64967;50.234;19.224;2024-01-30T03:18:06;78241.41;;;-143.90;100.00
76050;BME280;64967;50.234;19.224;2024-01-30T03:20:33;78237.28;;;-143.90;100.00
76050;BME280;64967;50.234;19.224;2024-01-30T03:23:00;78229.00;;;-143.90;100.00
76050;BME280;64967;50.234;19.224;2024-01-30T03:25:27;78233.13;;;-143.90;100.00
76050;BME280;64967;50.234;19.224;2024-01-30T03:27:53;78233.13;;;-143.90;100.00
76050;BME280;64967;50.234;19.224;2024-01-30T03:30:20;78235.22;;;-143.90;100.00
76050;BME280;64967;50.234;19.224;2024-01-30T03:32:47;78243.47;;;-143.90;100.00
76050;BME280;64967;50.234;19.224;2024-01-30T03:35:13;78241.41;;;-143.90;100.00
76050;BME280;64967;50.234;19.224;2024-01-30T03:37:40;78241.41;;;-143.90;100.00
76050;BME280;64967;50.234;19.224;2024-01-30T03:40:07;78245.56;;;-143.90;100.00
76050;BME280;64967;50.234;19.224;2024-01-30T03:42:34;78243.47;;;-143.90;100.00
76050;BME280;64967;50.234;19.224;2024-01-30T03:45:01;78245.56;;;-143.90;100.00
76050;BME280;64967;50.234;19.224;2024-01-30T03:47:28;78245.56;;;-143.90;100.00
76050;BME280;64967;50.234;19.224;2024-01-30T03:49:54;78249.69;;;-143.90;100.00
76050;BME280;64967;50.234;19.224;2024-01-30T03:52:21;78253.81;;;-143.90;100.00
76050;BME280;64967;50.234;19.224;2024-01-30T03:54:48;78253.81;;;-143.90;100.00
76050;BME280;64967;50.234;19.224;2024-01-30T03:57:14;78249.69;;;-143.90;100.00
76050;BME280;64967;50.234;19.224;2024-01-30T03:59:42;78245.56;;;-143.90;100.00
76050;BME280;64967;50.234;19.224;2024-01-30T04:02:10;78245.56;;;-143.90;100.00
76050;BME280;64967;50.234;19.224;2024-01-30T04:04:38;78253.81;;;-143.90;100.00
76050;BME280;64967;50.234;19.224;2024-01-30T04:07:04;78253.81;;;-143.90;100.00
76050;BME280;64967;50.234;19.224;2024-01-30T04:09:31;78255.91;;;-143.90;100.00
76050;BME280;64967;50.234;19.224;2024-01-30T04:11:58;78251.75;;;-143.90;100.00
76050;BME280;64967;50.234;19.224;2024-01-30T04:14:25;78253.81;;;-143.90;100.00
76050;BME280;64967;50.234;19.224;2024-01-30T04:16:52;78257.97;;;-143.90;100.00
76050;BME280;64967;50.234;19.224;2024-01-30T04:19:18;78251.75;;;-143.90;100.00
76050;BME280;64967;50.234;19.224;2024-01-30T04:21:45;78249.69;;;-143.90;100.00
76050;BME280;64967;50.234;19.224;2024-01-30T04:24:12;78249.69;;;-143.90;100.00
76050;BME280;64967;50.234;19.224;2024-01-30T04:26:38;78253.81;;;-143.90;100.00
76050;BME280;64967;50.234;19.224;2024-01-30T04:29:05;78249.69;;;-143.90;100.00
76050;BME280;64967;50.234;19.224;2024-01-30T04:31:32;78241.41;;;-143.90;100.00
76050;BME280;64967;50.234;19.224;2024-01-30T04:33:58;78237.28;;;-143.90;100.00
76050;BME280;64967;50.234;19.224;2024-01-30T04:36:25;78245.56;;;-143.90;100.00
76050;BME280;64967;50.234;19.224;2024-01-30T04:38:51;78237.28;;;-143.90;100.00
76050;BME280;64967;50.234;19.224;2024-01-30T04:41:18;78245.56;;;-143.90;100.00
76050;BME280;64967;50.234;19.224;2024-01-30T04:43:45;78243.47;;;-143.90;100.00
76050;BME280;64967;50.234;19.224;2024-01-30T04:46:11;78247.63;;;-143.90;100.00
76050;BME280;64967;50.234;19.224;2024-01-30T04:48:38;78253.81;;;-143.90;100.00
76050;BME280;64967;50.234;19.224;2024-01-30T04:51:05;78249.69;;;-143.90;100.00
76050;BME280;64967;50.234;19.224;2024-01-30T04:53:31;78245.56;;;-143.90;100.00
76050;BME280;64967;50.234;19.224;2024-01-30T04:55:58;78247.63;;;-143.90;100.00
76050;BME280;64967;50.234;19.224;2024-01-30T04:58:25;78243.47;;;-143.90;100.00
76050;BME280;64967;50.234;19.224;2024-01-30T05:00:51;78253.81;;;-143.90;100.00
76050;BME280;64967;50.234;19.224;2024-01-30T05:03:19;78255.91;;;-143.90;100.00
76050;BME280;64967;50.234;19.224;2024-01-30T05:05:46;78257.97;;;-143.90;100.00
76050;BME280;64967;50.234;19.224;2024-01-30T05:08:12;78253.81;;;-143.90;100.00
76050;BME280;64967;50.234;19.224;2024-01-30T05:10:39;78249.69;;;-143.90;100.00
76050;BME280;64967;50.234;19.224;2024-01-30T05:13:06;78243.47;;;-143.90;100.00
76050;BME280;64967;50.234;19.224;2024-01-30T05:15:32;78241.41;;;-143.90;100.00
76050;BME280;64967;50.234;19.224;2024-01-30T05:17:59;78237.28;;;-143.90;100.00
76050;BME280;64967;50.234;19.224;2024-01-30T05:20:26;78241.41;;;-143.90;100.00
76050;BME280;64967;50.234;19.224;2024-01-30T05:22:55;78241.41;;;-143.90;100.00
76050;BME280;64967;50.234;19.224;2024-01-30T05:25:21;78237.28;;;-143.90;100.00
76050;BME280;64967;50.234;19.224;2024-01-30T05:27:48;78245.56;;;-143.90;100.00
76050;BME280;64967;50.234;19.224;2024-01-30T05:30:15;78239.34;;;-143.90;100.00
76050;BME280;64967;50.234;19.224;2024-01-30T05:32:43;78241.41;;;-143.90;100.00
76050;BME280;64967;50.234;19.224;2024-01-30T05:35:10;78245.56;;;-143.90;100.00
76050;BME280;64967;50.234;19.224;2024-01-30T05:37:36;78262.09;;;-143.90;100.00
76050;BME280;64967;50.234;19.224;2024-01-30T05:40:03;78262.09;;;-143.90;100.00
76050;BME280;64967;50.234;19.224;2024-01-30T05:42:30;78262.09;;;-143.90;100.00
76050;BME280;64967;50.234;19.224;2024-01-30T05:44:57;78255.91;;;-143.90;100.00
76050;BME280;64967;50.234;19.224;2024-01-30T05:47:24;78260.03;;;-143.90;100.00
76050;BME280;64967;50.234;19.224;2024-01-30T05:49:50;78249.69;;;-143.90;100.00
76050;BME280;64967;50.234;19.224;2024-01-30T05:52:17;78251.75;;;-143.90;100.00
76050;BME280;64967;50.234;19.224;2024-01-30T05:54:45;78251.75;;;-143.90;100.00
76050;BME280;64967;50.234;19.224;2024-01-30T05:57:12;78257.97;;;-143.90;100.00
76050;BME280;64967;50.234;19.224;2024-01-30T05:59:38;78257.97;;;-143.90;100.00
76050;BME280;64967;50.234;19.224;2024-01-30T06:02:07;78266.25;;;-143.90;100.00
76050;BME280;64967;50.234;19.224;2024-01-30T06:04:34;78268.31;;;-143.90;100.00
76050;BME280;64967;50.234;19.224;2024-01-30T06:07:01;78274.53;;;-143.90;100.00
76050;BME280;64967;50.234;19.224;2024-01-30T06:09:28;78282.78;;;-143.90;100.00
76050;BME280;64967;50.234;19.224;2024-01-30T06:11:55;78295.22;;;-143.90;100.00
76050;BME280;64967;50.234;19.224;2024-01-30T06:14:22;78297.28;;;-143.90;100.00
76050;BME280;64967;50.234;19.224;2024-01-30T06:16:48;78299.34;;;-143.90;100.00
76050;BME280;64967;50.234;19.224;2024-01-30T06:19:15;78307.63;;;-143.90;100.00
76050;BME280;64967;50.234;19.224;2024-01-30T06:21:42;78303.47;;;-143.90;100.00
76050;BME280;64967;50.234;19.224;2024-01-30T06:24:08;78301.41;;;-143.90;100.00
76050;BME280;64967;50.234;19.224;2024-01-30T06:26:35;78301.41;;;-143.90;100.00
76050;BME280;64967;50.234;19.224;2024-01-30T06:29:02;78293.13;;;-143.90;100.00
76050;BME280;64967;50.234;19.224;2024-01-30T06:31:29;78286.94;;;-143.90;100.00
76050;BME280;64967;50.234;19.224;2024-01-30T06:33:56;78286.94;;;-143.90;100.00
76050;BME280;64967;50.234;19.224;2024-01-30T06:36:22;78278.66;;;-143.90;100.00
76050;BME280;64967;50.234;19.224;2024-01-30T06:38:49;78280.72;;;-143.90;100.00
76050;BME280;64967;50.234;19.224;2024-01-30T06:41:16;78272.44;;;-143.90;100.00
76050;BME280;64967;50.234;19.224;2024-01-30T06:43:42;78274.53;;;-143.90;100.00
76050;BME280;64967;50.234;19.224;2024-01-30T06:46:11;78268.31;;;-143.90;100.00
76050;BME280;64967;50.234;19.224;2024-01-30T06:48:39;78270.38;;;-143.90;100.00
76050;BME280;64967;50.234;19.224;2024-01-30T06:51:07;78262.09;;;-143.90;100.00
76050;BME280;64967;50.234;19.224;2024-01-30T06:53:34;78260.03;;;-143.90;100.00
76050;BME280;64967;50.234;19.224;2024-01-30T06:56:00;78255.91;;;-143.90;100.00
76050;BME280;64967;50.234;19.224;2024-01-30T06:58:27;78249.69;;;-143.90;100.00
76050;BME280;64967;50.234;19.224;2024-01-30T07:00:54;78245.56;;;-143.90;100.00
76050;BME280;64967;50.234;19.224;2024-01-30T07:03:21;78235.22;;;-143.90;100.00
76050;BME280;64967;50.234;19.224;2024-01-30T07:05:48;78233.13;;;-143.90;100.00
76050;BME280;64967;50.234;19.224;2024-01-30T07:08:15;78229.00;;;-143.90;100.00
76050;BME280;64967;50.234;19.224;2024-01-30T07:10:44;78224.88;;;-143.90;100.00
76050;BME280;64967;50.234;19.224;2024-01-30T07:13:11;78220.72;;;-143.90;100.00
76050;BME280;64967;50.234;19.224;2024-01-30T07:15:38;78212.44;;;-143.90;100.00
76050;BME280;64967;50.234;19.224;2024-01-30T07:18:05;78206.25;;;-143.90;100.00
76050;BME280;64967;50.234;19.224;2024-01-30T07:20:32;78191.75;;;-143.90;100.00
76050;BME280;64967;50.234;19.224;2024-01-30T07:22:59;78191.75;;;-143.90;100.00
76050;BME280;64967;50.234;19.224;2024-01-30T07:25:25;78181.41;;;-143.90;100.00
76050;BME280;64967;50.234;19.224;2024-01-30T07:27:53;78179.34;;;-143.90;100.00
76050;BME280;64967;50.234;19.224;2024-01-30T07:30:20;78166.94;;;-143.90;100.00
76050;BME280;64967;50.234;19.224;2024-01-30T07:32:47;78158.66;;;-143.90;100.00
76050;BME280;64967;50.234;19.224;2024-01-30T07:35:14;78142.09;;;-143.90;100.00
76050;BME280;64967;50.234;19.224;2024-01-30T07:37:41;78140.03;;;-143.90;100.00
76050;BME280;64967;50.234;19.224;2024-01-30T07:40:08;78133.81;;;-143.90;100.00
76050;BME280;64967;50.234;19.224;2024-01-30T07:42:35;78121.41;;;-143.90;100.00
76050;BME280;64967;50.234;19.224;2024-01-30T07:45:02;78104.88;;;-143.90;100.00
76050;BME280;64967;50.234;19.224;2024-01-30T07:47:28;78092.44;;;-143.90;100.00
76050;BME280;64967;50.234;19.224;2024-01-30T07:49:55;78075.91;;;-143.90;100.00
76050;BME280;64967;50.234;19.224;2024-01-30T07:52:22;78063.47;;;-143.90;100.00
76050;BME280;64967;50.234;19.224;2024-01-30T07:54:49;78055.22;;;-143.90;100.00
76050;BME280;64967;50.234;19.224;2024-01-30T07:57:17;78053.16;;;-143.90;100.00
76050;BME280;64967;50.234;19.224;2024-01-30T07:59:45;78040.72;;;-143.90;100.00
76050;BME280;64967;50.234;19.224;2024-01-30T08:02:12;78038.66;;;-143.90;100.00
76050;BME280;64967;50.234;19.224;2024-01-30T08:04:40;78030.38;;;-143.90;100.00
76050;BME280;64967;50.234;19.224;2024-01-30T08:07:06;78017.97;;;-143.90;100.00
76050;BME280;64967;50.234;19.224;2024-01-30T08:09:34;77999.34;;;-143.90;100.00
76050;BME280;64967;50.234;19.224;2024-01-30T08:12:00;77989.00;;;-143.90;100.00
76050;BME280;64967;50.234;19.224;2024-01-30T08:14:28;77980.72;;;-143.90;100.00
76050;BME280;64967;50.234;19.224;2024-01-30T08:16:54;77968.31;;;-143.90;100.00
76050;BME280;64967;50.234;19.224;2024-01-30T08:19:21;77957.97;;;-143.90;100.00
76050;BME280;64967;50.234;19.224;2024-01-30T08:21:48;77943.50;;;-143.90;100.00
76050;BME280;64967;50.234;19.224;2024-01-30T08:24:15;77931.06;;;-143.90;100.00
76050;BME280;64967;50.234;19.224;2024-01-30T08:26:41;77924.88;;;-143.90;100.00
76050;BME280;64967;50.234;19.224;2024-01-30T08:29:08;77916.59;;;-143.90;100.00
76050;BME280;64967;50.234;19.224;2024-01-30T08:31:35;77897.97;;;-143.90;100.00
76050;BME280;64967;50.234;19.224;2024-01-30T08:34:02;77889.69;;;-143.90;100.00
76050;BME280;64967;50.234;19.224;2024-01-30T08:36:29;77869.00;;;-143.90;100.00
76050;BME280;64967;50.234;19.224;2024-01-30T08:38:56;77850.41;;;-143.90;100.00
76050;BME280;64967;50.234;19.224;2024-01-30T08:41:28;77848.31;;;-143.90;100.00
76050;BME280;64967;50.234;19.224;2024-01-30T08:43:55;77835.91;;;-143.90;100.00
76050;BME280;64967;50.234;19.224;2024-01-30T08:46:21;77821.44;;;-143.90;100.00
76050;BME280;64967;50.234;19.224;2024-01-30T08:48:48;77815.22;;;-143.90;100.00
76050;BME280;64967;50.234;19.224;2024-01-30T08:51:15;77798.69;;;-143.90;100.00
76050;BME280;64967;50.234;19.224;2024-01-30T08:53:42;77792.47;;;-143.90;100.00
76050;BME280;64967;50.234;19.224;2024-01-30T08:56:09;77782.13;;;-143.90;100.00
76050;BME280;64967;50.234;19.224;2024-01-30T08:58:36;77765.56;;;-143.90;100.00
76050;BME280;64967;50.234;19.224;2024-01-30T09:01:03;77744.88;;;-143.90;100.00
76050;BME280;64967;50.234;19.224;2024-01-30T09:03:32;77730.41;;;-143.90;100.00
76050;BME280;64967;50.234;19.224;2024-01-30T09:05:58;77718.00;;;-143.90;100.00
76050;BME280;64967;50.234;19.224;2024-01-30T09:08:25;77703.50;;;-143.90;100.00
76050;BME280;64967;50.234;19.224;2024-01-30T09:10:51;77699.38;;;-143.90;100.00
76050;BME280;64967;50.234;19.224;2024-01-30T09:13:18;77682.81;;;-143.90;100.00
76050;BME280;64967;50.234;19.224;2024-01-30T09:15:45;77674.56;;;-143.90;100.00
76050;BME280;64967;50.234;19.224;2024-01-30T09:18:12;77658.00;;;-143.90;100.00
76050;BME280;64967;50.234;19.224;2024-01-30T09:20:39;77639.38;;;-143.90;100.00
76050;BME280;64967;50.234;19.224;2024-01-30T09:23:05;77629.03;;;-143.90;100.00
76050;BME280;64967;50.234;19.224;2024-01-30T09:25:32;77616.63;;;-143.90;100.00
76050;BME280;64967;50.234;19.224;2024-01-30T09:28:00;77602.16;;;-143.90;100.00
76050;BME280;64967;50.234;19.224;2024-01-30T09:30:27;77587.66;;;-143.90;100.00
76050;BME280;64967;50.234;19.224;2024-01-30T09:32:54;77577.31;;;-143.90;100.00
76050;BME280;64967;50.234;19.224;2024-01-30T09:35:20;77571.13;;;-143.90;100.00
76050;BME280;64967;50.234;19.224;2024-01-30T09:37:47;77560.78;;;-143.90;100.00
76050;BME280;64967;50.234;19.224;2024-01-30T09:40:14;77546.28;;;-143.90;100.00
76050;BME280;64967;50.234;19.224;2024-01-30T09:42:50;77533.88;;;-143.90;100.00
76050;BME280;64967;50.234;19.224;2024-01-30T09:45:24;77517.34;;;-143.90;100.00
76050;BME280;64967;50.234;19.224;2024-01-30T09:47:51;77500.78;;;-143.90;100.00
76050;BME280;64967;50.234;19.224;2024-01-30T09:50:19;77488.38;;;-143.90;100.00
76050;BME280;64967;50.234;19.224;2024-01-30T09:52:47;77473.91;;;-143.90;100.00
76050;BME280;64967;50.234;19.224;2024-01-30T09:55:14;77447.00;;;-143.90;100.00
76050;BME280;64967;50.234;19.224;2024-01-30T09:57:41;77430.47;;;-143.90;100.00
76050;BME280;64967;50.234;19.224;2024-01-30T10:00:09;77407.69;;;-143.90;100.00
76050;BME280;64967;50.234;19.224;2024-01-30T10:02:36;77401.50;;;-143.90;100.00
76050;BME280;64967;50.234;19.224;2024-01-30T10:05:03;77389.09;;;-143.90;100.00
76050;BME280;64967;50.234;19.224;2024-01-30T10:07:30;77368.41;;;-143.90;100.00
76050;BME280;64967;50.234;19.224;2024-01-30T10:09:57;77374.59;;;-143.90;100.00
76050;BME280;64967;50.234;19.224;2024-01-30T10:12:28;77356.00;;;-143.90;100.00
76050;BME280;64967;50.234;19.224;2024-01-30T10:14:56;77329.09;;;-143.90;100.00
76050;BME280;64967;50.234;19.224;2024-01-30T10:17:25;77322.88;;;-143.90;100.00
76050;BME280;64967;50.234;19.224;2024-01-30T10:19:59;77304.28;;;-143.90;100.00
76050;BME280;64967;50.234;19.224;2024-01-30T10:22:27;77306.34;;;-143.90;100.00
76050;BME280;64967;50.234;19.224;2024-01-30T10:24:54;77291.88;;;-143.90;100.00
76050;BME280;64967;50.234;19.224;2024-01-30T10:27:25;77279.44;;;-143.90;100.00
76050;BME280;64967;50.234;19.224;2024-01-30T10:29:53;77264.97;;;-143.90;100.00
76050;BME280;64967;50.234;19.224;2024-01-30T10:32:20;77260.84;;;-143.90;100.00
76050;BME280;64967;50.234;19.224;2024-01-30T10:34:47;77264.97;;;-143.90;100.00
76050;BME280;64967;50.234;19.224;2024-01-30T10:37:15;77252.56;;;-143.90;100.00
76050;BME280;64967;50.234;19.224;2024-01-30T10:39:44;77227.75;;;-143.90;100.00
76050;BME280;64967;50.234;19.224;2024-01-30T10:42:13;77225.66;;;-143.90;100.00
76050;BME280;64967;50.234;19.224;2024-01-30T10:45:05;77219.47;;;-143.90;100.00
76050;BME280;64967;50.234;19.224;2024-01-30T10:47:36;77207.06;;;-143.90;100.00
76050;BME280;64967;50.234;19.224;2024-01-30T10:50:04;77198.78;;;-143.90;100.00
76050;BME280;64967;50.234;19.224;2024-01-30T10:52:32;77184.31;;;-143.90;100.00
76050;BME280;64967;50.234;19.224;2024-01-30T10:54:59;77178.09;;;-143.90;100.00
76050;BME280;64967;50.234;19.224;2024-01-30T10:57:27;77173.97;;;-143.90;67.42
76050;BME280;64967;50.234;19.224;2024-01-30T11:00:00;77147.06;;;-143.90;66.83
76050;BME280;64967;50.234;19.224;2024-01-30T11:02:31;77138.81;;;-143.90;64.55
76050;BME280;64967;50.234;19.224;2024-01-30T11:04:59;77128.47;;;-143.90;65.20
76050;BME280;64967;50.234;19.224;2024-01-30T11:07:29;77116.03;;;-143.90;65.30
76050;BME280;64967;50.234;19.224;2024-01-30T11:10:01;77134.66;;;-143.90;66.08
76050;BME280;64967;50.234;19.224;2024-01-30T11:12:29;77124.31;;;-143.90;65.46
76050;BME280;64967;50.234;19.224;2024-01-30T11:15:10;77095.38;;;-143.90;64.69
76050;BME280;64967;50.234;19.224;2024-01-30T11:20:25;77078.81;;;-143.90;62.01
76050;BME280;64967;50.234;19.224;2024-01-30T11:22:53;77064.34;;;-143.90;60.70
76050;BME280;64967;50.234;19.224;2024-01-30T11:25:21;77043.66;;;-143.90;61.92
76050;BME280;64967;50.234;19.224;2024-01-30T11:27:50;77037.44;;;-143.90;60.68
76050;BME280;64967;50.234;19.224;2024-01-30T11:30:28;77037.44;;;-143.90;61.58
76050;BME280;64967;50.234;19.224;2024-01-30T11:33:05;77014.69;;;-143.90;60.85
76050;BME280;64967;50.234;19.224;2024-01-30T11:35:38;76994.00;;;-143.90;59.37
76050;BME280;64967;50.234;19.224;2024-01-30T11:38:13;77004.34;;;-143.90;58.62
76050;BME280;64967;50.234;19.224;2024-01-30T11:40:40;76987.81;;;-143.90;57.76
76050;BME280;64967;50.234;19.224;2024-01-30T11:43:08;76954.72;;;-143.90;57.63
76050;BME280;64967;50.234;19.224;2024-01-30T11:45:36;76963.00;;;-143.90;57.45
76050;BME280;64967;50.234;19.224;2024-01-30T11:48:03;76942.31;;;-143.90;57.33
76050;BME280;64967;50.234;19.224;2024-01-30T11:50:33;76954.72;;;-143.90;56.85
76050;BME280;64967;50.234;19.224;2024-01-30T11:53:01;76934.03;;;-143.90;55.48
76050;BME280;64967;50.234;19.224;2024-01-30T11:55:29;76927.81;;;-143.90;55.30
76050;BME280;64967;50.234;19.224;2024-01-30T11:58:00;76911.28;;;-143.90;53.76
76050;BME280;64967;50.234;19.224;2024-01-30T12:00:27;76903.00;;;-143.90;55.03
76050;BME280;64967;50.234;19.224;2024-01-30T12:02:54;76886.47;;;-143.90;53.48
76050;BME280;64967;50.234;19.224;2024-01-30T12:05:28;76876.13;;;-143.90;54.24
76050;BME280;64967;50.234;19.224;2024-01-30T12:07:55;76878.19;;;-143.90;51.65
76050;BME280;64967;50.234;19.224;2024-01-30T12:10:25;76865.78;;;-143.90;52.29
76050;BME280;64967;50.234;19.224;2024-01-30T12:12:53;76855.44;;;-143.90;50.90
76050;BME280;64967;50.234;19.224;2024-01-30T12:15:21;76834.75;;;-143.90;51.82
76050;BME280;64967;50.234;19.224;2024-01-30T12:17:48;76838.88;;;-143.90;51.38
76050;BME280;64967;50.234;19.224;2024-01-30T12:20:18;76838.88;;;-143.90;51.94
76050;BME280;64967;50.234;19.224;2024-01-30T12:22:49;76832.69;;;-143.90;50.92
76050;BME280;64967;50.234;19.224;2024-01-30T12:25:17;76818.22;;;-143.90;50.46